Terminal Aerodrome Forecast
Issued by NWS

Home | Current Version | Previous Version | Text Only | Print | Product List | Glossary Off
Versions: 1 2 3 4 5 6 7 8 9 10 11 12 13 14 15 16 17 18 19 20

000
FTUS43 KABR 250600 AAA
TAFATY
TAF AMD
KATY 250654Z 2507/2606 09009KT P6SM OVC040
     FM250800 06011KT 3SM -SN OVC025
     FM251100 05012KT 1SM -SN OVC010
     FM251700 36017G26KT 2SM -SN OVC025
     FM252200 35015G22KT 3SM BLSN BKN070=

USA.gov is the U.S. government's official web portal to all federal, state and local government web resources and services.